< < Back
Terminal Aerodrome Forecast


Current Version              Previous Versions:   1  2  3  4  5  6  7  8  9  

Terminal Aerodrome Forecast

021
FTUS42 KILM 241100
TAFILM
TAF
KILM 241120Z 2412/2512 05005KT P6SM SKC
     FM241800 14008KT P6SM SKC
     FM250200 VRB02KT P6SM SKC
     FM250800 00000KT P6SM BKN020=

Latest METAR

990
SAUS70 KWBC 250000 RRD
MTRILM
METAR KILM 242353Z 15004KT 10SM FEW048 17/07 A3004 RMK AO2 SLP171
T01720072 10206 20172 51006


USA.gov is the U.S. government's official web portal to all federal, state and local government web resources and services.